createdAt,value
2018-11-11T00:00:53.050Z,9.24
2018-11-11T00:03:24.973Z,9.25
2018-11-11T00:05:55.965Z,9.23
2018-11-11T00:08:26.754Z,9.19
2018-11-11T00:10:57.527Z,9.16
2018-11-11T00:13:27.659Z,9.13
2018-11-11T00:15:58.183Z,9.20
2018-11-11T00:18:28.098Z,9.12
2018-11-11T00:20:58.322Z,9.13
2018-11-11T00:23:29.165Z,9.13
2018-11-11T00:25:59.903Z,9.25
2018-11-11T00:28:30.488Z,9.18
2018-11-11T00:31:00.878Z,9.16
2018-11-11T00:33:31.712Z,9.16
2018-11-11T00:36:01.644Z,9.16
2018-11-11T00:38:31.983Z,9.16
2018-11-11T00:41:05.118Z,9.17
2018-11-11T00:43:36.264Z,9.13
2018-11-11T00:46:06.175Z,9.11
2018-11-11T00:48:37.377Z,9.05
2018-11-11T00:51:08.106Z,9.09
2018-11-11T00:53:38.125Z,9.13
2018-11-11T00:56:15.210Z,9.12
2018-11-11T00:58:47.181Z,9.09
2018-11-11T01:01:19.379Z,9.06
2018-11-11T01:03:51.152Z,9.19
2018-11-11T01:09:21.188Z,9.08
2018-11-11T01:11:57.108Z,9.05
2018-11-11T01:14:28.392Z,9.03
2018-11-11T01:16:58.411Z,9.08
2018-11-11T01:19:29.368Z,9.05
2018-11-11T01:21:59.259Z,9.09
2018-11-11T01:24:30.402Z,9.02
2018-11-11T01:27:01.366Z,8.93
2018-11-11T01:29:31.650Z,9.02
2018-11-11T01:32:02.635Z,9.01
2018-11-11T01:34:32.831Z,8.94
2018-11-11T01:37:03.638Z,8.95
2018-11-11T01:39:33.512Z,8.98
2018-11-11T01:42:04.087Z,9.01
2018-11-11T01:44:36.571Z,8.97
2018-11-11T01:47:08.659Z,9.02
2018-11-11T01:49:38.830Z,8.97
2018-11-11T01:52:09.446Z,8.99
2018-11-11T01:54:57.414Z,8.93
2018-11-11T01:57:29.500Z,8.93
2018-11-11T02:00:04.641Z,8.89
2018-11-11T02:02:38.570Z,8.88
2018-11-11T02:05:11.013Z,8.82
2018-11-11T02:07:41.411Z,8.85
2018-11-11T02:10:12.579Z,8.92
2018-11-11T02:12:44.684Z,8.80
2018-11-11T02:15:17.498Z,8.85
2018-11-11T02:17:49.766Z,8.98
2018-11-11T02:20:21.161Z,8.85
2018-11-11T02:22:52.764Z,8.70
2018-11-11T02:25:24.567Z,8.75
2018-11-11T02:27:55.608Z,8.77
2018-11-11T02:30:25.539Z,8.70
2018-11-11T02:32:56.459Z,8.77
2018-11-11T02:35:26.574Z,8.79
2018-11-11T02:37:57.715Z,8.71
2018-11-11T02:40:30.470Z,8.68
2018-11-11T02:43:01.653Z,8.65
2018-11-11T02:45:32.907Z,8.74
2018-11-11T02:48:03.854Z,8.73
2018-11-11T02:50:33.738Z,8.65
2018-11-11T02:53:06.786Z,8.64
2018-11-11T02:55:38.686Z,8.68
2018-11-11T02:58:08.942Z,8.56
2018-11-11T03:00:39.866Z,8.56
2018-11-11T03:03:09.776Z,8.60
2018-11-11T03:05:40.430Z,8.63
2018-11-11T03:08:10.619Z,8.63
2018-11-11T03:10:40.755Z,8.60
2018-11-11T03:13:18.586Z,8.48
2018-11-11T03:15:50.007Z,8.51
2018-11-11T03:18:20.898Z,8.45
2018-11-11T03:20:52.120Z,8.46
2018-11-11T03:23:22.005Z,8.47
2018-11-11T03:25:51.937Z,8.47
2018-11-11T03:28:23.980Z,8.47
2018-11-11T03:30:59.704Z,8.51
2018-11-11T03:33:30.891Z,8.53
2018-11-11T03:36:00.839Z,8.52
2018-11-11T03:38:31.998Z,8.51
2018-11-11T03:41:04.088Z,8.54
2018-11-11T03:43:37.027Z,8.47
2018-11-11T03:46:11.849Z,8.50
2018-11-11T03:48:41.274Z,8.45
2018-11-11T03:51:12.027Z,8.43
2018-11-11T03:53:44.126Z,8.35
2018-11-11T03:56:15.050Z,8.35
2018-11-11T03:58:45.777Z,8.38
2018-11-11T04:01:15.907Z,8.32
2018-11-11T04:03:46.870Z,8.37
2018-11-11T04:06:16.986Z,8.37
2018-11-11T04:08:47.338Z,8.36
2018-11-11T04:11:18.846Z,8.36
2018-11-11T04:13:49.499Z,8.36
2018-11-11T04:16:20.155Z,8.32
2018-11-11T04:18:50.172Z,8.34
2018-11-11T04:21:21.179Z,8.35
2018-11-11T04:23:52.056Z,8.35
2018-11-11T04:26:22.154Z,8.35
2018-11-11T04:28:52.930Z,8.38
2018-11-11T04:31:23.093Z,8.32
2018-11-11T04:33:53.182Z,8.34
2018-11-11T04:36:24.127Z,8.44
2018-11-11T04:38:54.592Z,8.36
2018-11-11T04:41:25.479Z,8.29
2018-11-11T04:43:55.602Z,8.26
2018-11-11T04:46:26.114Z,8.27
2018-11-11T04:49:02.139Z,8.20
2018-11-11T04:51:33.414Z,8.30
2018-11-11T04:54:03.391Z,8.17
2018-11-11T04:56:38.036Z,8.26
2018-11-11T04:59:09.711Z,8.16
2018-11-11T05:01:41.665Z,8.04
2018-11-11T05:04:18.258Z,8.08
2018-11-11T05:06:48.354Z,8.09
2018-11-11T05:09:19.286Z,8.05
2018-11-11T05:11:50.282Z,8.05
2018-11-11T05:14:23.207Z,8.07
2018-11-11T05:16:56.443Z,8.05
2018-11-11T05:19:27.351Z,8.00
2018-11-11T05:21:58.563Z,8.01
2018-11-11T05:24:28.282Z,7.91
2018-11-11T05:26:59.434Z,7.81
2018-11-11T05:29:30.424Z,7.88
2018-11-11T05:32:00.732Z,7.85
2018-11-11T05:34:30.623Z,7.82
2018-11-11T05:37:02.387Z,7.88
2018-11-11T05:39:35.370Z,7.85
2018-11-11T05:42:10.731Z,7.81
2018-11-11T05:44:46.110Z,7.83
2018-11-11T05:47:21.478Z,7.79
2018-11-11T05:49:56.690Z,7.75
2018-11-11T05:52:31.927Z,7.72
2018-11-11T05:55:07.749Z,7.70
2018-11-11T05:57:43.046Z,7.72
2018-11-11T06:00:18.847Z,7.71
2018-11-11T06:05:53.969Z,7.74
2018-11-11T06:08:29.263Z,7.72
2018-11-11T06:11:04.703Z,7.73
2018-11-11T06:13:40.099Z,7.71
2018-11-11T06:16:15.322Z,7.71
2018-11-11T06:18:50.542Z,7.72
2018-11-11T06:21:25.721Z,7.69
2018-11-11T06:24:01.292Z,7.71
2018-11-11T06:26:36.461Z,7.61
2018-11-11T06:29:11.820Z,7.58
2018-11-11T06:31:47.100Z,7.56
2018-11-11T06:34:22.255Z,7.62
2018-11-11T06:36:57.686Z,7.67
2018-11-11T06:39:33.028Z,7.70
2018-11-11T06:42:08.286Z,7.77
2018-11-11T06:44:43.615Z,6.93
2018-11-11T06:47:18.907Z,7.51
2018-11-11T06:49:54.207Z,7.51
2018-11-11T06:52:29.622Z,7.58
2018-11-11T06:55:05.100Z,7.60
2018-11-11T06:57:40.667Z,7.63
2018-11-11T07:00:16.623Z,7.56
2018-11-11T07:03:03.165Z,7.61
2018-11-11T07:05:38.547Z,7.61
2018-11-11T07:08:13.843Z,7.72
2018-11-11T07:10:49.223Z,7.75
2018-11-11T07:16:24.766Z,7.73
2018-11-11T07:19:00.159Z,7.76
2018-11-11T07:21:35.526Z,7.74
2018-11-11T07:24:10.751Z,7.75
2018-11-11T07:26:45.887Z,7.68
2018-11-11T07:29:21.318Z,7.81
2018-11-11T07:31:57.097Z,7.71
2018-11-11T07:34:32.411Z,7.71
2018-11-11T07:37:07.858Z,7.82
2018-11-11T07:39:43.139Z,7.71
2018-11-11T07:42:18.438Z,7.75
2018-11-11T07:44:53.745Z,7.77
2018-11-11T07:47:29.170Z,7.87
2018-11-11T07:50:05.297Z,7.94
2018-11-11T07:52:40.702Z,7.87
2018-11-11T07:55:15.908Z,7.81
2018-11-11T07:57:51.090Z,7.75
2018-11-11T08:00:27.262Z,7.68
2018-11-11T08:03:02.598Z,7.70
2018-11-11T08:05:38.838Z,7.70
2018-11-11T08:08:13.991Z,7.83
2018-11-11T08:11:00.321Z,7.98
2018-11-11T08:13:36.386Z,8.08
2018-11-11T08:16:11.744Z,7.98
2018-11-11T08:18:47.168Z,7.84
2018-11-11T08:21:22.413Z,7.95
2018-11-11T08:23:57.895Z,7.84
2018-11-11T08:26:33.570Z,7.81
2018-11-11T08:29:10.102Z,7.82
2018-11-11T08:31:45.463Z,8.02
2018-11-11T08:34:20.694Z,8.05
2018-11-11T08:36:56.244Z,7.86
2018-11-11T08:39:31.599Z,7.77
2018-11-11T08:42:06.793Z,7.73
2018-11-11T08:44:42.111Z,7.78
2018-11-11T08:47:17.315Z,7.86
2018-11-11T08:49:52.662Z,8.03
2018-11-11T08:52:27.955Z,7.93
2018-11-11T08:55:03.495Z,8.06
2018-11-11T08:57:38.790Z,8.16
2018-11-11T09:00:15.031Z,8.47
2018-11-11T09:02:50.422Z,8.36
2018-11-11T09:05:25.746Z,8.11
2018-11-11T09:08:01.191Z,8.04
2018-11-11T09:10:36.691Z,8.14
2018-11-11T09:13:11.898Z,8.22
2018-11-11T09:15:47.123Z,8.58
2018-11-11T09:18:22.431Z,9.10
2018-11-11T09:20:57.974Z,9.31
2018-11-11T09:23:33.308Z,9.62
2018-11-11T09:26:08.662Z,9.74
2018-11-11T09:28:44.071Z,9.54
2018-11-11T09:31:19.361Z,9.33
2018-11-11T09:33:54.656Z,9.46
2018-11-11T09:36:30.019Z,9.72
2018-11-11T09:39:10.558Z,10.09
2018-11-11T09:41:45.770Z,10.19
2018-11-11T09:44:21.290Z,10.51
2018-11-11T09:46:56.555Z,10.89
2018-11-11T09:49:32.507Z,10.56
2018-11-11T09:52:07.802Z,10.45
2018-11-11T09:54:43.142Z,10.76
2018-11-11T09:57:18.562Z,10.71
2018-11-11T09:59:54.067Z,11.44
2018-11-11T10:02:29.431Z,11.79
2018-11-11T10:05:23.591Z,12.32
2018-11-11T10:08:04.182Z,13.08
2018-11-11T10:10:47.342Z,13.47
2018-11-11T10:13:27.238Z,13.84
2018-11-11T10:16:07.750Z,14.37
2018-11-11T10:19:01.563Z,14.86
2018-11-11T10:22:44.721Z,15.03
2018-11-11T10:25:35.643Z,14.98
2018-11-11T10:28:20.873Z,14.90
2018-11-11T10:31:04.862Z,14.98
2018-11-11T10:36:47.384Z,15.44
2018-11-11T10:39:29.227Z,15.64
2018-11-11T10:42:09.902Z,16.22
2018-11-11T10:45:02.878Z,15.62
2018-11-11T10:47:44.918Z,15.93
2018-11-11T10:50:24.560Z,15.62
2018-11-11T10:52:59.880Z,16.24
2018-11-11T10:55:35.635Z,16.16
2018-11-11T10:58:11.182Z,16.28
2018-11-11T11:00:51.798Z,15.81
2018-11-11T11:03:30.483Z,16.43
2018-11-11T11:06:06.144Z,16.35
2018-11-11T11:08:46.791Z,17.08
2018-11-11T11:11:22.267Z,17.34
2018-11-11T11:13:57.749Z,17.92
2018-11-11T11:16:32.923Z,18.04
2018-11-11T11:19:09.696Z,18.50
2018-11-11T11:21:44.937Z,17.66
2018-11-11T11:24:15.887Z,17.76
2018-11-11T11:26:45.955Z,17.67
2018-11-11T11:29:15.907Z,18.09
2018-11-11T11:32:04.641Z,18.47
2018-11-11T11:34:35.383Z,18.68
2018-11-11T11:37:05.760Z,18.81
2018-11-11T11:39:35.655Z,18.29
2018-11-11T11:42:09.015Z,18.85
2018-11-11T11:44:39.146Z,19.08
2018-11-11T11:47:10.315Z,18.78
2018-11-11T11:49:40.112Z,18.68
2018-11-11T11:52:11.287Z,18.16
2018-11-11T11:54:47.034Z,18.22
2018-11-11T11:57:18.999Z,17.93
2018-11-11T11:59:50.959Z,17.82
2018-11-11T12:02:23.078Z,17.41
2018-11-11T12:04:53.163Z,16.83
2018-11-11T12:07:23.802Z,16.71
2018-11-11T12:09:56.747Z,16.44
2018-11-11T12:12:27.154Z,16.36
2018-11-11T12:14:57.152Z,16.32
2018-11-11T12:17:28.218Z,16.32
2018-11-11T12:19:57.742Z,16.44
2018-11-11T12:22:28.267Z,16.29
2018-11-11T12:24:57.641Z,16.16
2018-11-11T12:27:29.388Z,16.13
2018-11-11T12:30:00.346Z,16.03
2018-11-11T12:32:32.398Z,16.15
2018-11-11T12:35:02.396Z,16.26
2018-11-11T12:37:34.384Z,16.24
2018-11-11T12:40:08.158Z,16.20
2018-11-11T12:42:37.446Z,16.44
2018-11-11T12:45:09.359Z,16.42
2018-11-11T12:47:40.356Z,16.44
2018-11-11T12:50:11.995Z,16.47
2018-11-11T12:52:47.063Z,16.18
2018-11-11T12:55:17.446Z,16.04
2018-11-11T12:57:47.382Z,15.87
2018-11-11T13:00:18.519Z,16.04
2018-11-11T13:02:48.273Z,16.03
2018-11-11T13:05:21.210Z,15.91
2018-11-11T13:07:52.437Z,15.94
2018-11-11T13:10:23.321Z,16.03
2018-11-11T13:12:55.636Z,16.10
2018-11-11T13:15:27.399Z,16.03
2018-11-11T13:17:57.070Z,16.15
2018-11-11T13:20:26.467Z,16.18
2018-11-11T13:22:57.225Z,16.25
2018-11-11T13:25:28.531Z,16.26
2018-11-11T13:27:57.894Z,16.27
2018-11-11T13:30:28.401Z,16.37
2018-11-11T13:32:57.758Z,16.35
2018-11-11T13:35:28.522Z,16.47
2018-11-11T13:38:00.704Z,16.42
2018-11-11T13:40:32.545Z,16.35
2018-11-11T13:43:03.900Z,16.30
2018-11-11T13:45:33.545Z,16.30
2018-11-11T13:48:03.720Z,16.27
2018-11-11T13:50:33.120Z,16.33
2018-11-11T13:53:03.914Z,16.34
2018-11-11T13:55:35.715Z,16.23
2018-11-11T13:58:06.738Z,16.17
2018-11-11T14:00:38.719Z,16.13
2018-11-11T14:03:09.682Z,16.09
2018-11-11T14:05:39.927Z,16.08
2018-11-11T14:08:09.926Z,15.90
2018-11-11T14:10:40.674Z,15.83
2018-11-11T14:13:11.628Z,15.80
2018-11-11T14:15:41.973Z,15.68
2018-11-11T14:18:14.917Z,15.69
2018-11-11T14:20:46.531Z,15.57
2018-11-11T14:23:18.799Z,15.23
2018-11-11T14:25:50.118Z,15.32
2018-11-11T14:28:21.735Z,15.36
2018-11-11T14:33:53.114Z,15.12
2018-11-11T14:36:23.775Z,15.05
2018-11-11T14:38:53.882Z,14.83
2018-11-11T14:41:23.830Z,14.71
2018-11-11T14:44:01.234Z,14.56
2018-11-11T14:46:30.653Z,14.52
2018-11-11T14:49:01.238Z,14.35
2018-11-11T14:51:30.915Z,14.40
2018-11-11T14:54:05.021Z,14.25
2018-11-11T14:56:34.929Z,14.22
2018-11-11T14:59:05.414Z,14.21
2018-11-11T15:01:37.032Z,14.05
2018-11-11T15:04:13.215Z,13.92
2018-11-11T15:06:44.917Z,13.89
2018-11-11T15:09:14.883Z,13.81
2018-11-11T15:11:46.938Z,13.63
2018-11-11T15:14:19.055Z,13.56
2018-11-11T15:16:49.370Z,13.43
2018-11-11T15:19:19.819Z,13.47
2018-11-11T15:21:50.163Z,13.56
2018-11-11T15:24:20.502Z,13.48
2018-11-11T15:26:54.033Z,13.41
2018-11-11T15:29:30.045Z,13.26
2018-11-11T15:32:01.360Z,13.23
2018-11-11T15:34:33.171Z,13.30
2018-11-11T15:37:04.408Z,13.07
2018-11-11T15:39:34.150Z,12.97
2018-11-11T15:42:04.140Z,13.02
2018-11-11T15:44:35.270Z,12.99
2018-11-11T15:47:07.289Z,12.92
2018-11-11T15:49:39.035Z,12.60
2018-11-11T15:52:09.315Z,12.44
2018-11-11T15:54:39.380Z,12.39
2018-11-11T15:57:10.119Z,12.27
2018-11-11T15:59:40.159Z,12.17
2018-11-11T16:02:10.263Z,12.18
2018-11-11T16:04:41.197Z,12.15
2018-11-11T16:07:17.114Z,11.98
2018-11-11T16:09:47.206Z,11.90
2018-11-11T16:12:18.346Z,11.89
2018-11-11T16:14:48.286Z,11.79
2018-11-11T16:17:22.224Z,11.66
2018-11-11T16:19:52.315Z,11.60
2018-11-11T16:22:23.330Z,11.68
2018-11-11T16:24:55.406Z,11.57
2018-11-11T16:27:25.339Z,11.50
2018-11-11T16:29:57.953Z,11.56
2018-11-11T16:32:27.360Z,11.62
2018-11-11T16:34:57.347Z,11.61
2018-11-11T16:37:28.446Z,11.48
2018-11-11T16:39:58.767Z,11.29
2018-11-11T16:42:29.474Z,11.33
2018-11-11T16:45:00.497Z,11.36
2018-11-11T16:47:30.714Z,11.15
2018-11-11T16:50:00.856Z,11.14
2018-11-11T16:52:31.662Z,11.09
2018-11-11T16:55:03.552Z,10.97
2018-11-11T16:57:37.724Z,11.04
2018-11-11T17:00:10.590Z,11.05
2018-11-11T17:02:41.692Z,10.96
2018-11-11T17:05:14.646Z,10.88
2018-11-11T17:07:51.155Z,10.64
2018-11-11T17:10:25.707Z,10.43
2018-11-11T17:12:58.915Z,10.49
2018-11-11T17:15:30.745Z,10.55
2018-11-11T17:18:00.728Z,10.54
2018-11-11T17:20:30.804Z,10.49
2018-11-11T17:23:02.498Z,10.43
2018-11-11T17:25:36.331Z,10.32
2018-11-11T17:28:08.687Z,10.15
2018-11-11T17:30:38.930Z,10.11
2018-11-11T17:33:08.434Z,10.07
2018-11-11T17:35:40.175Z,10.09
2018-11-11T17:38:09.545Z,10.01
2018-11-11T17:40:40.750Z,10.02
2018-11-11T17:43:11.001Z,9.90
2018-11-11T17:45:41.313Z,9.96
2018-11-11T17:48:11.658Z,9.97
2018-11-11T17:50:48.362Z,9.98
2018-11-11T17:53:18.819Z,9.83
2018-11-11T17:55:48.789Z,9.74
2018-11-11T17:58:18.672Z,9.71
2018-11-11T18:00:52.755Z,9.60
2018-11-11T18:03:23.832Z,9.58
2018-11-11T18:05:55.770Z,9.51
2018-11-11T18:08:26.855Z,9.51
2018-11-11T18:10:57.017Z,9.55
2018-11-11T18:13:26.878Z,9.52
2018-11-11T18:15:56.306Z,9.46
2018-11-11T18:18:27.798Z,9.51
2018-11-11T18:20:57.725Z,9.59
2018-11-11T18:23:31.757Z,9.69
2018-11-11T18:26:02.770Z,9.67
2018-11-11T18:28:32.802Z,9.63
2018-11-11T18:31:04.059Z,9.44
2018-11-11T18:33:33.928Z,9.47
2018-11-11T18:36:04.093Z,9.23
2018-11-11T18:38:34.885Z,9.20
2018-11-11T18:41:05.856Z,9.17
2018-11-11T18:43:35.716Z,9.20
2018-11-11T18:46:06.116Z,9.30
2018-11-11T18:48:36.539Z,9.35
2018-11-11T18:51:06.962Z,9.37
2018-11-11T18:53:37.088Z,9.39
2018-11-11T18:56:07.927Z,9.36
2018-11-11T18:58:38.256Z,9.41
2018-11-11T19:01:14.199Z,9.43
2018-11-11T19:03:44.035Z,9.41
2018-11-11T19:06:14.939Z,9.37
2018-11-11T19:08:44.946Z,9.36
2018-11-11T19:11:19.966Z,9.34
2018-11-11T19:13:50.472Z,9.44
2018-11-11T19:16:20.368Z,9.41
2018-11-11T19:18:50.380Z,9.36
2018-11-11T19:21:21.105Z,9.37
2018-11-11T19:23:51.288Z,9.32
2018-11-11T19:26:22.108Z,9.32
2018-11-11T19:28:52.203Z,9.27
2018-11-11T19:31:22.214Z,9.27
2018-11-11T19:33:53.222Z,9.21
2018-11-11T19:36:23.495Z,9.25
2018-11-11T19:38:54.400Z,9.33
2018-11-11T19:41:24.303Z,9.17
2018-11-11T19:43:57.503Z,8.98
2018-11-11T19:46:28.475Z,8.90
2018-11-11T19:48:58.219Z,8.90
2018-11-11T19:51:33.342Z,8.87
2018-11-11T19:54:03.513Z,8.90
2018-11-11T19:56:34.079Z,8.95
2018-11-11T19:59:04.928Z,9.01
2018-11-11T20:01:34.432Z,9.02
2018-11-11T20:04:11.634Z,8.91
2018-11-11T20:06:43.453Z,8.83
2018-11-11T20:09:14.471Z,8.82
2018-11-11T20:11:47.043Z,8.83
2018-11-11T20:14:23.510Z,8.81
2018-11-11T20:16:53.438Z,8.82
2018-11-11T20:19:23.486Z,8.77
2018-11-11T20:21:54.440Z,8.75
2018-11-11T20:24:24.457Z,8.71
2018-11-11T20:26:54.570Z,8.70
2018-11-11T20:29:25.475Z,8.72
2018-11-11T20:31:55.374Z,8.68
2018-11-11T20:34:26.599Z,8.70
2018-11-11T20:36:56.611Z,8.71
2018-11-11T20:39:27.630Z,8.66
2018-11-11T20:41:57.506Z,8.67
2018-11-11T20:44:28.493Z,8.61
2018-11-11T20:46:57.859Z,8.52
2018-11-11T20:49:29.800Z,8.51
2018-11-11T20:52:00.063Z,8.67
2018-11-11T20:54:29.597Z,8.71
2018-11-11T20:57:01.164Z,8.71
2018-11-11T20:59:34.547Z,8.76
2018-11-11T21:02:05.506Z,8.77
2018-11-11T21:04:42.627Z,8.70
2018-11-11T21:07:13.755Z,8.62
2018-11-11T21:09:48.703Z,8.51
2018-11-11T21:12:18.683Z,8.45
2018-11-11T21:14:48.602Z,8.43
2018-11-11T21:17:23.648Z,8.44
2018-11-11T21:20:02.042Z,8.40
2018-11-11T21:22:34.884Z,8.15
2018-11-11T21:25:05.515Z,8.08
2018-11-11T21:27:41.446Z,8.17
2018-11-11T21:30:16.918Z,8.19
2018-11-11T21:32:47.066Z,8.24
2018-11-11T21:35:19.093Z,8.29
2018-11-11T21:37:50.025Z,8.27
2018-11-11T21:40:23.854Z,8.19
2018-11-11T21:42:55.923Z,8.16
2018-11-11T21:45:27.789Z,8.12
2018-11-11T21:47:57.525Z,8.14
2018-11-11T21:50:28.251Z,8.05
2018-11-11T21:53:09.172Z,8.11
2018-11-11T21:55:40.869Z,8.07
2018-11-11T21:58:12.938Z,8.09
2018-11-11T22:00:44.195Z,8.03
2018-11-11T22:03:14.878Z,8.02
2018-11-11T22:05:44.760Z,7.93
2018-11-11T22:08:15.639Z,7.84
2018-11-11T22:10:46.251Z,7.79
2018-11-11T22:13:16.534Z,7.76
2018-11-11T22:15:47.613Z,7.73
2018-11-11T22:18:17.805Z,7.62
2018-11-11T22:20:48.347Z,7.64
2018-11-11T22:23:17.939Z,7.61
2018-11-11T22:25:51.811Z,7.58
2018-11-11T22:28:26.002Z,7.57
2018-11-11T22:30:56.453Z,7.51
2018-11-11T22:33:27.171Z,7.48
2018-11-11T22:35:57.082Z,7.50
2018-11-11T22:38:28.012Z,7.55
2018-11-11T22:40:58.124Z,7.56
2018-11-11T22:43:28.980Z,7.46
2018-11-11T22:45:58.359Z,7.44
2018-11-11T22:48:30.183Z,7.47
2018-11-11T22:51:00.985Z,7.41
2018-11-11T22:53:31.031Z,7.41
2018-11-11T22:56:01.225Z,7.23
2018-11-11T22:58:30.583Z,7.15
2018-11-11T23:01:06.390Z,7.02
2018-11-11T23:03:36.119Z,7.03
2018-11-11T23:06:07.254Z,7.03
2018-11-11T23:08:38.270Z,7.12
2018-11-11T23:11:08.394Z,7.15
2018-11-11T23:13:39.331Z,7.13
2018-11-11T23:16:11.204Z,7.21
2018-11-11T23:18:45.310Z,7.20
2018-11-11T23:21:16.007Z,7.26
2018-11-11T23:23:45.719Z,7.21
2018-11-11T23:26:16.755Z,7.16
2018-11-11T23:28:57.251Z,7.14
2018-11-11T23:31:30.121Z,7.15
2018-11-11T23:34:03.075Z,7.20
2018-11-11T23:36:39.140Z,7.20
2018-11-11T23:39:13.098Z,7.24
2018-11-11T23:41:43.334Z,7.34
2018-11-11T23:44:14.341Z,7.36
2018-11-11T23:46:44.329Z,7.36
2018-11-11T23:49:15.687Z,7.37
2018-11-11T23:51:45.170Z,7.40
2018-11-11T23:54:16.460Z,7.39
2018-11-11T23:56:48.372Z,7.43
2018-11-11T23:59:18.464Z,7.44
